Time;durP1;ratioP1;P1;durP2;ratioP2;P2;SDS_P1;SDS_P2;PMS_P1;PMS_P2;Temp;Humidity;BMP_temperature;BMP_pressure;BME280_temperature;BME280_humidity;BME280_pressure;Samples;Min_cycle;Max_cycle;Signal;HPM_P1;HPM_P2
2022/02/05 03:10:38;;;;;;;;;;;0.20;87.60;;;;;;5111734;23;19930;-75
2022/02/05 03:13:05;;;;;;;;;;;0.10;87.60;;;;;;4992535;28;20278;-77
2022/02/05 03:15:37;;;;;;;;;;;0.10;87.50;;;;;;4977629;28;19926;-77
2022/02/05 03:18:09;;;;;;;;;;;0.00;88.80;;;;;;4993577;28;19965;-76
2022/02/05 03:20:36;;;;;;;;;;;0.00;89.50;;;;;;4993686;28;20024;-77
2022/02/05 03:23:03;;;;;;;;;;;0.00;88.90;;;;;;4976995;28;20013;-77
2022/02/05 03:25:30;;;;;;;;;;;0.00;89.10;;;;;;4994381;28;20286;-77
2022/02/05 03:27:58;;;;;;;;;;;0.10;89.70;;;;;;4994501;28;20004;-75
2022/02/05 03:30:25;;;;;;;;;;;0.10;88.50;;;;;;4993200;28;20496;-76
2022/02/05 03:32:52;;;;;;;;;;;0.10;89.50;;;;;;4996993;28;19953;-75
2022/02/05 03:35:18;;;;;;;;;;;0.10;89.80;;;;;;4993556;28;20020;-77
2022/02/05 03:37:45;;;;;;;;;;;0.10;90.50;;;;;;4984944;28;20427;-77
2022/02/05 03:40:12;;;;;;;;;;;0.20;91.40;;;;;;4976315;28;19933;-75
2022/02/05 03:42:39;;;;;;;;;;;0.20;90.50;;;;;;4977175;28;20290;-77
2022/02/05 03:45:09;;;;;;;;;;;0.30;90.80;;;;;;4993685;28;19930;-77
2022/02/05 03:47:36;;;;;;;;;;;0.30;90.40;;;;;;4994712;28;20008;-78
2022/02/05 03:50:04;;;;;;;;;;;0.30;90.20;;;;;;4983154;28;19925;-75
2022/02/05 03:52:31;;;;;;;;;;;0.30;90.30;;;;;;4993669;28;19965;-77
2022/02/05 03:54:58;;;;;;;;;;;0.30;90.20;;;;;;4977439;28;19969;-75
2022/02/05 03:57:25;;;;;;;;;;;0.30;89.90;;;;;;4975319;28;20414;-75
2022/02/05 03:59:51;;;;;;;;;;;0.20;88.90;;;;;;4977232;28;20017;-75
2022/02/05 04:02:18;;;;;;;;;;;0.10;89.30;;;;;;4996021;28;19961;-78
2022/02/05 04:04:45;;;;;;;;;;;0.10;89.20;;;;;;4976598;28;19964;-78
2022/02/05 04:07:12;;;;;;;;;;;0.00;89.30;;;;;;4999471;28;20012;-77
2022/02/05 04:09:41;;;;;;;;;;;0.00;89.40;;;;;;4990996;28;19957;-75
2022/02/05 04:17:40;;;;;;;;;;;0.00;89.50;;;;;;4973570;28;20481;-77
2022/02/05 04:20:07;;;;;;;;;;;-0.10;89.10;;;;;;4964847;28;19926;-75
2022/02/05 04:22:34;;;;;;;;;;;-0.10;89.30;;;;;;4990836;28;20413;-75
2022/02/05 04:25:02;;;;;;;;;;;-0.10;89.20;;;;;;4970218;28;20305;-75
2022/02/05 04:27:29;;;;;;;;;;;-0.10;89.20;;;;;;4968825;28;19926;-75
2022/02/05 04:29:56;;;;;;;;;;;-0.10;89.60;;;;;;4977111;28;20390;-75
2022/02/05 04:32:22;;;;;;;;;;;-0.10;90.10;;;;;;4982438;28;19926;-76
2022/02/05 04:34:49;;;;;;;;;;;-0.10;89.60;;;;;;4970671;28;19931;-75
2022/02/05 04:37:18;;;;;;;;;;;-0.20;89.10;;;;;;4972826;28;19965;-75
2022/02/05 04:39:51;;;;;;;;;;;-0.40;89.00;;;;;;4969512;28;19961;-78
2022/02/05 04:42:25;;;;;;;;;;;-0.40;89.50;;;;;;4989141;28;20373;-76
2022/02/05 04:48:08;;;;;;;;;;;-0.40;89.40;;;;;;4978303;28;19981;-75
2022/02/05 04:56:30;;;;;;;;;;;-0.30;89.70;;;;;;4973356;28;19962;-75
2022/02/05 05:04:37;;;;;;;;;;;-0.20;89.10;;;;;;4976318;28;19960;-75
2022/02/05 05:10:04;;;;;;;;;;;-0.10;90.30;;;;;;4971781;28;19926;-75
2022/02/05 05:20:34;;;;;;;;;;;-0.10;90.00;;;;;;4972596;28;19930;-78
2022/02/05 05:23:01;;;;;;;;;;;-0.10;89.60;;;;;;4986357;28;20425;-76
2022/02/05 05:25:27;;;;;;;;;;;-0.10;90.00;;;;;;4974731;28;20008;-78
2022/02/05 05:27:54;;;;;;;;;;;-0.20;89.40;;;;;;4987602;28;19953;-77
2022/02/05 05:30:21;;;;;;;;;;;-0.20;89.00;;;;;;4957099;28;19954;-77
2022/02/05 05:32:48;;;;;;;;;;;-0.10;89.20;;;;;;4979759;28;19953;-75
2022/02/05 05:35:14;;;;;;;;;;;-0.20;89.70;;;;;;4960426;28;20382;-77
2022/02/05 05:37:41;;;;;;;;;;;-0.10;90.30;;;;;;4972224;28;20025;-78
2022/02/05 05:40:08;;;;;;;;;;;-0.10;90.30;;;;;;4978352;28;19930;-77
2022/02/05 05:42:40;;;;;;;;;;;-0.10;90.10;;;;;;4976714;28;19934;-77
2022/02/05 05:48:31;;;;;;;;;;;0.00;90.00;;;;;;4972477;28;19966;-77
2022/02/05 05:50:58;;;;;;;;;;;0.00;89.80;;;;;;4964431;28;19980;-75
2022/02/05 05:53:22;;;;;;;;;;;0.00;90.00;;;;;;4973344;28;19977;-76
2022/02/05 05:55:49;;;;;;;;;;;0.00;90.10;;;;;;4987581;28;19930;-77
2022/02/05 05:58:17;;;;;;;;;;;0.00;88.90;;;;;;4991043;28;19969;-79
2022/02/05 06:00:46;;;;;;;;;;;-0.20;87.50;;;;;;4958653;28;19926;-76
2022/02/05 06:03:13;;;;;;;;;;;-0.50;88.60;;;;;;4963513;28;20310;-78
2022/02/05 06:05:39;;;;;;;;;;;-0.50;89.20;;;;;;4967209;28;19926;-76
2022/02/05 06:08:09;;;;;;;;;;;-0.50;90.00;;;;;;4987484;28;19930;-78
2022/02/05 06:10:36;;;;;;;;;;;-0.50;90.30;;;;;;4973250;28;19968;-76
2022/02/05 06:13:03;;;;;;;;;;;-0.50;90.70;;;;;;4972007;28;19968;-78
2022/02/05 06:15:30;;;;;;;;;;;-0.50;90.40;;;;;;4971686;28;19972;-77
2022/02/05 06:17:57;;;;;;;;;;;-0.50;90.50;;;;;;4967956;28;19927;-75
2022/02/05 06:20:24;;;;;;;;;;;-0.40;90.40;;;;;;4963696;28;19926;-79
2022/02/05 06:22:51;;;;;;;;;;;-0.40;90.60;;;;;;4985838;28;19964;-76
2022/02/05 06:25:17;;;;;;;;;;;-0.30;90.70;;;;;;4988641;28;19941;-76
2022/02/05 06:27:44;;;;;;;;;;;-0.30;90.80;;;;;;4973347;28;19984;-77
2022/02/05 06:30:11;;;;;;;;;;;-0.30;90.60;;;;;;4972171;28;20437;-76
2022/02/05 06:32:38;;;;;;;;;;;-0.30;90.40;;;;;;4970586;28;20458;-77
2022/02/05 06:35:05;;;;;;;;;;;-0.30;90.30;;;;;;4968439;28;20069;-76
2022/02/05 06:37:32;;;;;;;;;;;-0.20;90.40;;;;;;4968799;28;20447;-78
2022/02/05 06:39:59;;;;;;;;;;;-0.30;90.40;;;;;;4972089;28;19973;-76
2022/02/05 06:42:25;;;;;;;;;;;-0.30;90.40;;;;;;4962185;28;19957;-77
2022/02/05 06:44:52;;;;;;;;;;;-0.20;90.90;;;;;;4956021;28;20400;-76
2022/02/05 06:47:19;;;;;;;;;;;-0.20;90.90;;;;;;4970273;28;20382;-76
2022/02/05 06:49:46;;;;;;;;;;;-0.30;90.20;;;;;;4972499;28;19926;-78
2022/02/05 06:52:12;;;;;;;;;;;-0.30;90.20;;;;;;4975303;28;19926;-78
2022/02/05 06:54:39;;;;;;;;;;;-0.30;90.20;;;;;;4976202;28;19973;-77
2022/02/05 06:57:06;;;;;;;;;;;-0.30;90.20;;;;;;4975792;28;19966;-77
2022/02/05 06:59:33;;;;;;;;;;;-0.40;90.20;;;;;;4974933;28;20417;-77
2022/02/05 07:01:59;;;;;;;;;;;-0.50;90.50;;;;;;4985046;28;19926;-77
2022/02/05 07:04:27;;;;;;;;;;;-0.40;90.80;;;;;;4988322;28;19969;-76
2022/02/05 07:06:56;;;;;;;;;;;-0.40;91.00;;;;;;4966072;28;19933;-77
2022/02/05 07:09:26;;;;;;;;;;;-0.30;90.90;;;;;;4975343;28;19926;-77
2022/02/05 07:11:56;;;;;;;;;;;-0.30;91.10;;;;;;4975094;28;19977;-75
2022/02/05 07:14:27;;;;;;;;;;;-0.20;91.10;;;;;;4994068;28;20301;-77
2022/02/05 07:17:06;;;;;;;;;;;-0.10;90.90;;;;;;4994887;28;19940;-77
2022/02/05 07:20:01;;;;;;;;;;;-0.10;90.90;;;;;;4960757;28;19980;-77
2022/02/05 07:22:34;;;;;;;;;;;0.00;90.90;;;;;;4958499;28;19980;-77
2022/02/05 07:30:30;;;;;;;;;;;0.10;90.80;;;;;;4974924;28;20349;-77
2022/02/05 07:32:57;;;;;;;;;;;0.20;90.70;;;;;;4968807;28;19976;-76
2022/02/05 07:35:25;;;;;;;;;;;0.20;90.70;;;;;;4960429;28;19997;-77
2022/02/05 07:37:55;;;;;;;;;;;0.30;90.80;;;;;;4977871;28;20084;-77
2022/02/05 07:40:22;;;;;;;;;;;0.40;90.90;;;;;;4977526;28;19970;-77
2022/02/05 07:42:49;;;;;;;;;;;0.40;91.00;;;;;;4973407;28;20325;-76
2022/02/05 07:45:17;;;;;;;;;;;0.50;91.30;;;;;;4958973;28;20412;-76
2022/02/05 07:47:44;;;;;;;;;;;0.60;91.30;;;;;;4969110;28;19930;-76
2022/02/05 07:50:11;;;;;;;;;;;0.80;91.30;;;;;;4969697;28;19925;-76
2022/02/05 07:52:38;;;;;;;;;;;0.90;91.30;;;;;;4964900;28;20313;-76
2022/02/05 07:55:06;;;;;;;;;;;1.00;91.00;;;;;;4978822;28;21327;-78
2022/02/05 07:57:34;;;;;;;;;;;1.20;91.00;;;;;;4970689;28;20343;-76
2022/02/05 08:00:00;;;;;;;;;;;1.20;90.90;;;;;;4972201;28;19982;-76
2022/02/05 08:02:27;;;;;;;;;;;1.40;90.80;;;;;;4975729;28;19973;-76
2022/02/05 08:04:54;;;;;;;;;;;1.40;90.80;;;;;;4953786;28;19988;-77
2022/02/05 08:07:21;;;;;;;;;;;1.50;91.00;;;;;;4977657;28;19984;-76
2022/02/05 08:12:19;;;;;;;;;;;1.70;91.00;;;;;;4956618;28;19926;-79
2022/02/05 08:14:48;;;;;;;;;;;1.80;90.80;;;;;;4971057;28;19981;-76
2022/02/05 08:17:20;;;;;;;;;;;1.90;90.80;;;;;;4954958;28;19934;-78
2022/02/05 08:19:47;;;;;;;;;;;1.90;90.80;;;;;;4951809;28;19930;-77
2022/02/05 08:22:18;;;;;;;;;;;2.10;90.80;;;;;;4976329;28;20342;-75
2022/02/05 08:24:45;;;;;;;;;;;2.20;90.70;;;;;;4959898;28;19931;-77
2022/02/05 08:27:16;;;;;;;;;;;2.40;90.80;;;;;;4944283;28;20018;-77
2022/02/05 08:30:03;;;;;;;;;;;2.50;90.80;;;;;;4949801;28;19930;-77
2022/02/05 08:32:30;;;;;;;;;;;2.60;90.60;;;;;;4941788;29;20037;-76
2022/02/05 08:35:00;;;;;;;;;;;2.80;90.00;;;;;;4966811;28;19930;-76
2022/02/05 08:37:37;;;;;;;;;;;3.00;90.10;;;;;;4961314;28;20724;-77
2022/02/05 08:40:05;;;;;;;;;;;3.20;90.10;;;;;;4958768;28;19954;-76
2022/02/05 08:42:32;;;;;;;;;;;3.20;89.80;;;;;;4967227;28;19962;-76
2022/02/05 08:44:59;;;;;;;;;;;3.30;90.10;;;;;;4968049;28;19930;-77
2022/02/05 08:47:25;;;;;;;;;;;3.20;90.10;;;;;;4953501;28;19969;-75
2022/02/05 08:49:53;;;;;;;;;;;3.20;90.20;;;;;;4970608;28;19989;-78
2022/02/05 08:52:20;;;;;;;;;;;3.20;90.20;;;;;;4958940;28;19931;-77
2022/02/05 08:54:46;;;;;;;;;;;3.20;90.20;;;;;;4968399;28;19927;-77
2022/02/05 08:57:14;;;;;;;;;;;3.20;90.00;;;;;;4955385;28;19982;-76
2022/02/05 08:59:53;;;;;;;;;;;3.10;89.90;;;;;;4954621;28;20314;-76
2022/02/05 09:02:38;;;;;;;;;;;3.10;90.10;;;;;;4951950;28;19926;-78
2022/02/05 09:07:32;;;;;;;;;;;3.20;90.40;;;;;;4953347;28;19957;-76
2022/02/05 09:10:09;;;;;;;;;;;3.30;90.50;;;;;;4968181;28;19926;-77
2022/02/05 09:15:04;;;;;;;;;;;3.80;90.10;;;;;;4973106;28;19984;-77
2022/02/05 09:17:30;;;;;;;;;;;4.10;89.40;;;;;;4972115;28;19959;-75
2022/02/05 09:19:57;;;;;;;;;;;4.40;88.30;;;;;;4959051;28;20437;-77
2022/02/05 09:22:27;;;;;;;;;;;4.70;87.20;;;;;;4961637;28;19977;-75
2022/02/05 09:24:57;;;;;;;;;;;4.90;86.60;;;;;;4958420;28;19976;-77
2022/02/05 09:27:27;;;;;;;;;;;5.20;85.80;;;;;;4959595;28;19926;-77
2022/02/05 09:30:01;;;;;;;;;;;5.40;84.90;;;;;;4977224;28;19999;-77
2022/02/05 09:32:28;;;;;;;;;;;5.60;84.50;;;;;;4963537;28;19926;-77
2022/02/05 09:34:55;;;;;;;;;;;5.90;81.20;;;;;;4976299;28;19977;-77
2022/02/05 09:37:21;;;;;;;;;;;6.10;80.50;;;;;;4980666;28;19957;-77
2022/02/05 09:39:49;;;;;;;;;;;6.30;79.10;;;;;;4975685;28;20434;-77
2022/02/05 09:42:17;;;;;;;;;;;6.50;79.10;;;;;;4963836;28;19926;-75
2022/02/05 09:44:43;;;;;;;;;;;6.70;78.60;;;;;;4961720;28;19930;-76
2022/02/05 09:47:10;;;;;;;;;;;7.00;78.80;;;;;;4955079;28;19930;-77
2022/02/05 09:49:38;;;;;;;;;;;7.30;76.90;;;;;;4974873;28;19996;-75
2022/02/05 09:52:11;;;;;;;;;;;7.50;76.40;;;;;;4971716;28;19960;-76
2022/02/05 09:54:38;;;;;;;;;;;7.70;76.20;;;;;;4976808;28;20427;-77
2022/02/05 09:57:06;;;;;;;;;;;7.80;74.60;;;;;;4972798;28;20434;-75
2022/02/05 09:59:46;;;;;;;;;;;8.00;75.00;;;;;;4977463;28;19977;-77
2022/02/05 10:02:23;;;;;;;;;;;8.20;74.30;;;;;;4954954;28;19926;-77
2022/02/05 10:04:54;;;;;;;;;;;8.30;73.50;;;;;;4967225;28;19934;-76
2022/02/05 10:07:55;;;;;;;;;;;8.40;73.70;;;;;;4956670;28;19930;-75
2022/02/05 10:10:23;;;;;;;;;;;8.50;72.70;;;;;;4964683;28;19982;-78
2022/02/05 10:13:25;;;;;;;;;;;8.70;73.10;;;;;;4959191;28;19926;-77
2022/02/05 10:15:54;;;;;;;;;;;8.90;72.50;;;;;;4940700;28;19984;-78
2022/02/05 10:18:25;;;;;;;;;;;9.20;72.00;;;;;;4969843;28;20310;-75
2022/02/05 10:20:53;;;;;;;;;;;9.30;71.10;;;;;;4954002;28;19933;-78
2022/02/05 10:23:20;;;;;;;;;;;9.50;70.80;;;;;;4971335;28;19949;-75
2022/02/05 10:25:50;;;;;;;;;;;9.70;69.90;;;;;;4973576;28;19934;-77
2022/02/05 10:28:17;;;;;;;;;;;9.90;68.70;;;;;;4957051;28;20302;-79
2022/02/05 10:30:49;;;;;;;;;;;10.00;67.80;;;;;;4967183;28;19980;-77
2022/02/05 10:33:22;;;;;;;;;;;10.10;66.60;;;;;;4965659;28;19929;-76
2022/02/05 10:36:13;;;;;;;;;;;10.00;67.10;;;;;;4997082;28;19934;-77
2022/02/05 10:44:16;;;;;;;;;;;10.60;67.00;;;;;;4979351;28;19992;-78
2022/02/05 10:46:43;;;;;;;;;;;10.80;64.80;;;;;;4977339;28;20374;-76
2022/02/05 11:57:41;;;;;;;;;;;12.90;55.50;;;;;;5073192;23;19918;-79
2022/02/05 12:44:32;;;;;;;54.25;40.60;;;14.50;52.90;;;;;;6124960;22;1389568;-80
2022/02/05 12:47:34;;;;;;;;;;;14.60;52.00;;;;;;6134669;23;20458;-79
2022/02/05 12:50:09;;;;;;;51.28;37.58;;;14.70;51.50;;;;;;6109981;23;19976;-80
2022/02/05 12:52:36;;;;;;;;;;;14.80;51.50;;;;;;6141835;23;20350;-80
2022/02/05 12:55:04;;;;;;;;;;;14.90;51.20;;;;;;6164980;23;19917;-78
2022/02/05 12:57:31;;;;;;;;;;;15.00;50.90;;;;;;6167266;23;19924;-80
2022/02/05 13:00:07;;;;;;;;;;;15.10;50.80;;;;;;6163943;23;19917;-78
2022/02/05 13:02:34;;;;;;;;;;;15.30;51.40;;;;;;6165453;23;20364;-79
2022/02/05 13:05:02;;;;;;;;;;;15.50;49.60;;;;;;6160262;23;19916;-77
2022/02/05 13:07:29;;;;;;;;;;;15.50;49.70;;;;;;6170874;23;19921;-79
2022/02/05 13:10:01;;;;;;;;;;;15.60;48.80;;;;;;6166495;23;19944;-79
2022/02/05 13:12:34;;;;;;;;;;;15.60;49.20;;;;;;6159989;23;19921;-79
2022/02/05 13:15:05;;;;;;;;;;;15.60;49.20;;;;;;6155783;23;19944;-80
2022/02/05 13:17:47;;;;;;;;;;;15.80;49.00;;;;;;6157626;23;19963;-78
2022/02/05 13:36:25;;;;;;;;;;;15.50;48.60;;;;;;6165248;23;20392;-77
2022/02/05 13:41:39;;;;;;;;;;;15.70;49.30;;;;;;6153772;23;19921;-79
2022/02/05 13:44:11;;;;;;;;;;;15.60;47.70;;;;;;6152770;23;20235;-78
2022/02/05 13:46:38;;;;;;;;;;;15.40;47.90;;;;;;6153533;23;19921;-79
2022/02/05 13:49:17;;;;;;;;;;;15.50;48.90;;;;;;6164374;23;20318;-80
2022/02/05 13:51:44;;;;;;;;;;;15.40;49.10;;;;;;6160107;23;20400;-78
2022/02/05 13:54:11;;;;;;;;;;;15.50;49.10;;;;;;6159463;23;20277;-79
2022/02/05 13:56:38;;;;;;;;;;;15.70;49.10;;;;;;6152995;23;20334;-79
2022/02/05 13:59:18;;;;;;;;;;;15.70;48.10;;;;;;6156538;23;19939;-80
2022/02/05 14:01:45;;;;;;;;;;;15.70;48.60;;;;;;6151974;23;20658;-80
2022/02/05 14:04:19;;;;;;;;;;;15.70;48.20;;;;;;6177122;23;19917;-77
2022/02/05 14:06:57;;;;;;;;;;;15.70;47.80;;;;;;6153694;23;20581;-77
2022/02/05 14:09:25;;;;;;;;;;;15.70;47.90;;;;;;6159151;23;19920;-77
2022/02/05 14:11:53;;;;;;;;;;;15.70;47.80;;;;;;6156264;23;20337;-77
2022/02/05 14:14:37;;;;;;;;;;;15.70;47.70;;;;;;6164232;23;19917;-79
2022/02/05 14:17:13;;;;;;;;;;;15.70;48.10;;;;;;6162395;23;19917;-78
2022/02/05 14:19:41;;;;;;;;;;;15.70;48.00;;;;;;6152170;23;20231;-80
2022/02/05 14:22:27;;;;;;;;;;;15.70;47.10;;;;;;6159439;23;19919;-77
2022/02/05 14:25:09;;;;;;;;;;;15.70;47.80;;;;;;6158354;23;20249;-77
2022/02/05 14:27:39;;;;;;;;;;;15.70;47.90;;;;;;6152667;23;19920;-76
2022/02/05 14:30:14;;;;;;;;;;;15.70;48.90;;;;;;6177075;23;19987;-79
2022/02/05 14:32:45;;;;;;;;;;;15.60;48.60;;;;;;6157174;23;20302;-79
2022/02/05 14:40:44;;;;;;;;;;;15.60;48.20;;;;;;6153546;23;19916;-79
2022/02/05 14:43:14;;;;;;;;;;;15.60;48.00;;;;;;6161705;23;20333;-77
2022/02/05 14:45:41;;;;;;;;;;;15.50;47.70;;;;;;6175066;23;19916;-77
2022/02/05 14:48:08;;;;;;;;;;;15.50;48.50;;;;;;6181308;23;19922;-77
2022/02/05 14:50:35;;;;;;;;;;;15.50;48.20;;;;;;6192378;23;19920;-79
2022/02/05 14:53:02;;;;;;;;;;;15.30;47.90;;;;;;6168841;23;19916;-77
2022/02/05 14:55:29;;;;;;;;;;;15.20;48.20;;;;;;6157206;23;20345;-76
2022/02/05 14:57:56;;;;;;;;;;;15.20;48.30;;;;;;6186643;23;19919;-77
2022/02/05 15:00:23;;;;;;;;;;;15.20;48.60;;;;;;6157573;23;20330;-76
2022/02/05 15:02:50;;;;;;;;;;;15.30;48.60;;;;;;6162026;23;20292;-79
2022/02/05 15:05:17;;;;;;;;;;;15.30;48.70;;;;;;6161930;23;19924;-77
2022/02/05 15:07:44;;;;;;;;;;;15.30;48.40;;;;;;6188213;23;20403;-76
2022/02/05 15:10:14;;;;;;;;;;;15.20;48.10;;;;;;6187411;23;19920;-79
2022/02/05 15:12:41;;;;;;;;;;;15.20;48.00;;;;;;6157157;23;19920;-76
2022/02/05 15:15:23;;;;;;;;;;;15.20;47.70;;;;;;6156334;23;19971;-79
2022/02/05 15:17:50;;;;;;;;;;;15.20;47.30;;;;;;6162781;23;19924;-78
2022/02/05 15:20:19;;;;;;;;;;;15.10;48.00;;;;;;6198448;23;19980;-78
2022/02/05 15:22:47;;;;;;;;;;;15.10;48.00;;;;;;6168399;23;19920;-77
2022/02/05 15:25:14;;;;;;;;;;;15.10;48.10;;;;;;6192187;23;19916;-77
2022/02/05 15:27:41;;;;;;;;;;;15.00;48.40;;;;;;6186567;23;19924;-78
2022/02/05 15:30:08;;;;;;;;;;;15.00;48.70;;;;;;6188554;23;19917;-76
2022/02/05 15:32:36;;;;;;;;;;;15.00;49.10;;;;;;6189052;23;19923;-78
2022/02/05 15:35:03;;;;;;;;;;;14.90;49.10;;;;;;6183854;23;19916;-79
2022/02/05 15:37:30;;;;;;;;;;;14.80;49.30;;;;;;6160241;23;20353;-79
2022/02/05 16:19:05;;;;;;;;;;;13.60;52.20;;;;;;6100493;23;20368;-76
2022/02/05 16:21:32;;;;;;;;;;;13.50;52.40;;;;;;6139464;23;19939;-76
2022/02/05 16:23:58;;;;;;;;;;;13.20;53.10;;;;;;6153459;23;19917;-77
2022/02/05 16:26:25;;;;;;;;;;;12.80;53.70;;;;;;6155902;23;20337;-77
2022/02/05 16:28:52;;;;;;;;;;;12.60;54.30;;;;;;6153286;23;19924;-77
2022/02/05 16:31:19;;;;;;;;;;;12.40;55.00;;;;;;6152840;23;19917;-75
2022/02/05 16:33:46;;;;;;;;;;;12.40;55.20;;;;;;6156022;23;19921;-75
2022/02/05 16:36:19;;;;;;;;;;;12.30;55.70;;;;;;6128372;23;20423;-76
2022/02/05 16:38:53;;;;;;;;;;;12.20;56.80;;;;;;6150862;23;20337;-74
2022/02/05 16:41:20;;;;;;;;;;;12.10;56.60;;;;;;6151947;23;19920;-75
2022/02/05 16:43:48;;;;;;;;;;;12.00;56.50;;;;;;6153199;23;19944;-74
2022/02/05 16:46:20;;;;;;;;;;;12.10;56.70;;;;;;6158514;23;19932;-75
2022/02/05 16:48:47;;;;;;;;;;;12.00;56.70;;;;;;6158171;23;19916;-75
2022/02/05 16:51:15;;;;;;;;;;;12.00;56.60;;;;;;6129687;23;20270;-75
2022/02/05 16:53:44;;;;;;;;;;;11.80;56.70;;;;;;6154509;23;19975;-78
2022/02/05 16:56:11;;;;;;;;;;;11.70;57.50;;;;;;6154226;23;19948;-77
2022/02/05 16:58:37;;;;;;;;;;;11.50;58.60;;;;;;6156194;23;19916;-77
2022/02/05 17:01:06;;;;;;;;;;;11.30;58.50;;;;;;6154127;23;19916;-78
2022/02/05 17:03:34;;;;;;;;;;;11.10;59.10;;;;;;6129900;23;19920;-78
2022/02/05 17:06:01;;;;;;;;;;;10.90;59.40;;;;;;6160052;23;19920;-76
2022/02/05 17:08:33;;;;;;;;;;;10.70;59.50;;;;;;6166390;23;19944;-75
2022/02/05 17:11:00;;;;;;;;;;;10.60;60.50;;;;;;6159865;23;19916;-76
2022/02/05 17:13:30;;;;;;;;;;;10.40;60.50;;;;;;6157294;23;20464;-77
2022/02/05 17:16:03;;;;;;;;;;;10.20;61.10;;;;;;6183432;23;19964;-76
2022/02/05 17:18:32;;;;;;;;;;;10.00;62.40;;;;;;6181137;23;19998;-77
2022/02/05 17:21:01;;;;;;;;;;;9.80;62.50;;;;;;6183658;23;19916;-76
2022/02/05 17:23:32;;;;;;;;;;;9.70;62.70;;;;;;6154367;23;19921;-76
2022/02/05 17:26:00;;;;;;;;;;;9.60;62.70;;;;;;6155357;23;19917;-75
2022/02/05 17:28:30;;;;;;;;;;;9.50;62.80;;;;;;6155856;23;19924;-79
2022/02/05 17:30:57;;;;;;;;;;;9.40;63.20;;;;;;6178639;23;19917;-77
2022/02/05 17:33:24;;;;;;;;;;;9.30;63.60;;;;;;6179155;23;19916;-79
2022/02/05 17:36:00;;;;;;;;;;;9.10;63.70;;;;;;6155739;23;20239;-77
2022/02/05 17:38:28;;;;;;;;;;;9.00;64.10;;;;;;6179146;23;19999;-80
2022/02/05 17:40:58;;;;;;;;;;;8.90;64.40;;;;;;6161988;23;19931;-75
2022/02/05 17:43:26;;;;;;;;;;;8.80;64.60;;;;;;6158978;23;19917;-76
2022/02/05 17:45:53;;;;;;;;;;;8.60;65.10;;;;;;6162002;23;19928;-79
2022/02/05 17:48:20;;;;;;;;;;;8.50;65.30;;;;;;6180810;23;19984;-77
2022/02/05 17:50:47;;;;;;;;;;;8.40;66.50;;;;;;6178086;23;19921;-78
2022/02/05 17:53:14;;;;;;;;;;;8.20;67.00;;;;;;6177040;23;19920;-79
2022/02/05 17:55:41;;;;;;;;;;;8.10;66.50;;;;;;6183046;23;19947;-77
2022/02/05 17:58:10;;;;;;;;;;;8.00;66.50;;;;;;6164384;23;19924;-76
2022/02/05 18:00:39;;;;;;;;;;;7.90;66.40;;;;;;6152864;23;19951;-80
2022/02/05 18:03:06;;;;;;;;;;;7.80;66.70;;;;;;6182164;23;19927;-77
2022/02/05 18:05:47;;;;;;;;;;;7.70;66.70;;;;;;6179564;23;19924;-76
2022/02/05 18:11:06;;;;;;;;;;;7.50;67.60;;;;;;6165883;23;19921;-77
2022/02/05 18:16:00;;;;;;;;;;;7.30;69.30;;;;;;6154542;23;19923;-79
2022/02/05 18:18:27;;;;;;;;;;;7.20;69.70;;;;;;6179814;23;19916;-76
2022/02/05 18:20:55;;;;;;;;;;;7.20;69.40;;;;;;6157670;23;20230;-77
2022/02/05 18:23:22;;;;;;;;;;;7.10;70.00;;;;;;6157974;23;19916;-77
2022/02/05 18:25:49;;;;;;;;;;;7.00;70.10;;;;;;6178255;23;20230;-76
2022/02/05 18:28:16;;;;;;;;;;;7.00;70.50;;;;;;6178705;23;19935;-76
2022/02/05 18:30:45;;;;;;;;;;;6.90;69.50;;;;;;6180876;23;19921;-77
2022/02/05 18:33:13;;;;;;;;;;;6.70;70.60;;;;;;6164038;23;19920;-79
2022/02/05 18:35:40;;;;;;;;;;;6.60;70.30;;;;;;6176686;23;19979;-79
2022/02/05 18:38:09;;;;;;;;;;;6.50;70.30;;;;;;6180962;23;19916;-77
2022/02/05 18:40:38;;;;;;;;;;;6.40;70.00;;;;;;6179545;23;19924;-79
2022/02/05 18:43:05;;;;;;;;;;;6.30;70.50;;;;;;6155712;23;19967;-75
2022/02/05 18:45:34;;;;;;;;;;;6.20;70.80;;;;;;6158853;23;19921;-77
2022/02/05 18:48:00;;;;;;;;;;;6.10;71.40;;;;;;6186333;23;19944;-75
2022/02/05 18:50:27;;;;;;;;;;;6.00;71.50;;;;;;6152219;23;19916;-79
2022/02/05 18:52:54;;;;;;;;;;;6.00;72.90;;;;;;6180073;23;20326;-78
2022/02/05 18:55:25;;;;;;;;;;;6.00;73.20;;;;;;6160423;23;19991;-79
2022/02/05 18:57:52;;;;;;;;;;;5.90;74.00;;;;;;6179819;23;19921;-79
2022/02/05 19:00:29;;;;;;;;;;;5.90;74.10;;;;;;6156682;23;19921;-79
2022/02/05 19:11:32;;;;;;;;;;;6.20;82.60;;;;;;6148738;23;20254;-79
2022/02/05 19:14:19;;;;;;;;;;;6.30;83.20;;;;;;6153444;23;19920;-77
2022/02/05 19:19:14;;;;;;;;;;;6.20;78.10;;;;;;6177297;23;19920;-77
2022/02/05 19:21:41;;;;;;;;;;;6.00;75.40;;;;;;6182228;23;19927;-77
2022/02/05 19:24:10;;;;;;;;;;;5.90;75.80;;;;;;6187642;23;19916;-76
2022/02/05 19:26:37;;;;;;;;;;;5.70;75.00;;;;;;6160156;23;19916;-76
2022/02/05 19:29:04;;;;;;;;;;;5.60;75.20;;;;;;6161316;23;19923;-78
2022/02/05 19:31:31;;;;;;;;;;;5.40;75.70;;;;;;6190611;23;19917;-75
2022/02/05 19:33:58;;;;;;;;;;;5.30;75.70;;;;;;6164258;23;19978;-78
2022/02/05 19:36:26;;;;;;;;;;;5.30;75.60;;;;;;6192207;23;19927;-76
2022/02/05 19:38:53;;;;;;;;;;;5.20;75.30;;;;;;6167715;23;19971;-77
2022/02/05 19:41:27;;;;;;;;;;;5.20;75.10;;;;;;6178715;23;19900;-78
2022/02/05 19:43:56;;;;;;;;;;;5.10;75.40;;;;;;6198802;23;19904;-78
2022/02/05 19:46:37;;;;;;;;;;;5.00;74.90;;;;;;6190376;23;19920;-76
2022/02/05 19:49:06;;;;;;;;;;;5.00;74.90;;;;;;6188789;23;19939;-77
2022/02/05 19:51:34;;;;;;;;;;;4.90;75.40;;;;;;6164160;23;19916;-76
2022/02/05 19:54:01;;;;;;;;;;;4.80;75.10;;;;;;6186408;23;19916;-76
2022/02/05 19:56:28;;;;;;;;;;;4.70;75.30;;;;;;6191580;23;19916;-77
2022/02/05 19:59:00;;;;;;;;;;;4.70;76.50;;;;;;6191999;23;19926;-75
2022/02/05 20:01:28;;;;;;;;;;;4.60;76.60;;;;;;6157275;23;20312;-75
2022/02/05 20:03:57;;;;;;;;;;;4.50;76.40;;;;;;6185269;23;20010;-76
2022/02/05 20:06:30;;;;;;;;;;;4.50;77.20;;;;;;6167378;23;19934;-77
2022/02/05 20:08:57;;;;;;;;;;;4.40;77.30;;;;;;6156039;23;19916;-75
2022/02/05 20:11:24;;;;;;;;;;;4.30;77.80;;;;;;6156799;23;19920;-76
2022/02/05 20:13:59;;;;;;;;;;;4.10;77.50;;;;;;6161965;23;19920;-77
2022/02/05 20:16:27;;;;;;;;;;;4.00;77.70;;;;;;6182945;23;19920;-78
2022/02/05 20:18:54;;;;;;;;;;;3.90;77.40;;;;;;6158861;23;19956;-77
2022/02/05 20:21:26;;;;;;;;;;;3.80;78.00;;;;;;6181852;23;19924;-75
2022/02/05 20:23:53;;;;;;;;;;;3.80;79.70;;;;;;6157381;23;19931;-77
2022/02/05 20:26:20;;;;;;;;;;;3.70;79.00;;;;;;6155384;23;20360;-77
2022/02/05 20:28:47;;;;;;;;;;;3.70;79.00;;;;;;6179169;23;19963;-77
2022/02/05 20:31:14;;;;;;;;;;;3.70;79.70;;;;;;6157055;23;20293;-76
2022/02/05 20:33:41;;;;;;;;;;;3.60;79.00;;;;;;6160541;23;19940;-76
2022/02/05 20:36:08;;;;;;;;;;;3.60;78.30;;;;;;6186574;23;19975;-76
2022/02/05 20:38:35;;;;;;;;;;;3.50;78.30;;;;;;6159484;23;19916;-77
2022/02/05 20:41:02;;;;;;;;;;;3.40;78.50;;;;;;6186063;23;20294;-77
2022/02/05 20:43:29;;;;;;;;;;;3.30;78.10;;;;;;6162986;23;19920;-77
2022/02/05 20:45:57;;;;;;;;;;;3.30;78.60;;;;;;6178832;23;19921;-76
2022/02/05 20:48:24;;;;;;;;;;;3.20;78.40;;;;;;6180010;23;19920;-76
2022/02/05 20:50:55;;;;;;;;;;;3.10;79.10;;;;;;6177301;23;19971;-77
2022/02/05 20:53:27;;;;;;;;;;;3.10;79.80;;;;;;6170706;23;19917;-76
2022/02/05 20:55:54;;;;;;;;;;;3.10;79.60;;;;;;6154489;23;20297;-76
2022/02/05 20:58:21;;;;;;;;;;;3.10;79.70;;;;;;6178471;23;19917;-77
2022/02/05 21:00:48;;;;;;;;;;;3.10;79.50;;;;;;6181965;23;19922;-76
2022/02/05 21:03:16;;;;;;;;;;;3.10;79.70;;;;;;6158513;23;19920;-78
2022/02/05 21:05:43;;;;;;;;;;;3.10;79.50;;;;;;6182658;23;20337;-77
2022/02/05 21:08:10;;;;;;;;;;;3.10;79.40;;;;;;6194509;23;20663;-79
2022/02/05 21:10:36;;;;;;;;;;;3.00;78.90;;;;;;6178083;23;20330;-76
2022/02/05 21:13:03;;;;;;;;;;;3.00;79.10;;;;;;6184989;23;19951;-79
2022/02/05 21:15:32;;;;;;;;;;;3.00;78.90;;;;;;6155644;23;19920;-76
2022/02/05 21:17:58;;;;;;;;;;;3.00;79.70;;;;;;6180030;23;19967;-75
2022/02/05 21:20:25;;;;;;;;;;;3.00;79.30;;;;;;6166321;23;20257;-76
2022/02/05 21:22:58;;;;;;;;;;;3.00;80.50;;;;;;6161970;23;20257;-76
2022/02/05 21:25:26;;;;;;;;;;;3.00;79.80;;;;;;6160788;23;19916;-76
2022/02/05 21:27:57;;;;;;;;;;;3.00;80.50;;;;;;6184146;23;19916;-76
2022/02/05 21:30:29;;;;;;;;;;;3.00;80.20;;;;;;6161093;23;19947;-76
2022/02/05 21:33:04;;;;;;;;;;;2.80;79.10;;;;;;6187137;23;19916;-77
2022/02/05 21:35:30;;;;;;;;;;;2.70;79.00;;;;;;6191587;23;19916;-75
2022/02/05 21:37:57;;;;;;;;;;;2.60;78.90;;;;;;6163471;23;20396;-79
2022/02/05 21:40:24;;;;;;;;;;;2.50;79.30;;;;;;6168687;23;19920;-77
2022/02/05 21:42:51;;;;;;;;;;;2.50;79.10;;;;;;6164308;23;19924;-77
2022/02/05 21:45:18;;;;;;;;;;;2.40;79.30;;;;;;6164612;23;20329;-76
2022/02/05 21:47:46;;;;;;;;;;;2.40;79.10;;;;;;6194190;23;19966;-77
2022/02/05 21:50:16;;;;;;;;;;;2.30;78.90;;;;;;6159960;23;20993;-75